createdAt,value
2023-02-13T00:00:12.253Z,4.98
2023-02-13T00:02:38.671Z,4.96
2023-02-13T00:05:05.312Z,4.93
2023-02-13T00:07:31.690Z,4.82
2023-02-13T00:09:58.057Z,4.90
2023-02-13T00:12:24.433Z,4.88
2023-02-13T00:14:50.835Z,4.81
2023-02-13T00:17:17.431Z,4.82
2023-02-13T00:19:43.804Z,4.86
2023-02-13T00:22:10.302Z,4.82
2023-02-13T00:24:36.660Z,4.77
2023-02-13T00:27:03.170Z,4.66
2023-02-13T00:29:29.525Z,4.67
2023-02-13T00:31:55.955Z,4.67
2023-02-13T00:34:22.468Z,4.66
2023-02-13T00:36:48.802Z,4.64
2023-02-13T00:39:15.195Z,4.48
2023-02-13T00:41:41.545Z,4.57
2023-02-13T00:44:09.307Z,4.59
2023-02-13T00:46:36.467Z,4.52
2023-02-13T00:49:02.934Z,4.44
2023-02-13T00:51:29.298Z,4.41
2023-02-13T00:53:55.757Z,4.43
2023-02-13T00:56:22.606Z,4.43
2023-02-13T00:58:49.161Z,4.34
2023-02-13T01:01:15.541Z,4.29
2023-02-13T01:03:42.036Z,4.21
2023-02-13T01:06:08.528Z,4.33
2023-02-13T01:08:35.447Z,4.31
2023-02-13T01:11:01.822Z,4.31
2023-02-13T01:13:28.169Z,4.31
2023-02-13T01:15:54.578Z,4.28
2023-02-13T01:18:21.339Z,4.23
2023-02-13T01:20:58.090Z,4.25
2023-02-13T01:23:24.779Z,4.25
2023-02-13T01:25:51.669Z,4.18
2023-02-13T01:28:18.210Z,4.26
2023-02-13T01:30:44.599Z,4.22
2023-02-13T01:33:11.989Z,4.18
2023-02-13T01:35:41.356Z,4.20
2023-02-13T01:38:07.711Z,4.22
2023-02-13T01:40:34.096Z,4.11
2023-02-13T01:43:00.443Z,4.12
2023-02-13T01:45:29.614Z,4.06
2023-02-13T01:48:18.032Z,4.09
2023-02-13T01:51:00.133Z,4.05
2023-02-13T01:53:39.405Z,4.12
2023-02-13T01:56:14.032Z,4.06
2023-02-13T01:58:45.008Z,3.94
2023-02-13T02:01:11.930Z,3.92
2023-02-13T02:03:47.018Z,3.88
2023-02-13T02:06:27.420Z,3.89
2023-02-13T02:08:57.706Z,3.82
2023-02-13T02:11:34.539Z,3.88
2023-02-13T02:14:01.461Z,3.87
2023-02-13T02:16:29.224Z,3.83
2023-02-13T02:18:55.940Z,3.88
2023-02-13T02:21:54.484Z,3.93
2023-02-13T02:25:03.558Z,3.90
2023-02-13T02:27:38.374Z,3.78
2023-02-13T02:30:10.675Z,3.86
2023-02-13T02:32:52.289Z,3.86
2023-02-13T02:35:37.822Z,3.77
2023-02-13T02:38:27.346Z,3.71
2023-02-13T02:40:59.353Z,3.62
2023-02-13T02:43:31.487Z,3.71
2023-02-13T02:46:18.496Z,3.65
2023-02-13T02:49:20.636Z,3.62
2023-02-13T02:52:14.896Z,3.70
2023-02-13T02:55:08.334Z,3.66
2023-02-13T02:58:03.290Z,3.69
2023-02-13T03:00:52.590Z,3.57
2023-02-13T03:03:41.310Z,3.58
2023-02-13T03:06:16.375Z,3.47
2023-02-13T03:09:22.658Z,3.57
2023-02-13T03:12:10.540Z,3.39
2023-02-13T03:14:37.485Z,3.52
2023-02-13T03:17:24.532Z,3.39
2023-02-13T03:20:34.266Z,3.50
2023-02-13T03:23:15.539Z,3.49
2023-02-13T03:26:05.779Z,3.41
2023-02-13T03:28:58.677Z,3.43
2023-02-13T03:31:49.832Z,3.18
2023-02-13T03:34:47.102Z,3.23
2023-02-13T03:37:42.231Z,3.17
2023-02-13T03:40:30.724Z,3.15
2023-02-13T03:43:06.683Z,3.00
2023-02-13T03:45:52.924Z,3.11
2023-02-13T03:48:54.661Z,3.12
2023-02-13T03:51:27.899Z,3.04
2023-02-13T03:54:02.211Z,2.96
2023-02-13T03:56:49.895Z,2.96
2023-02-13T03:59:26.587Z,2.98
2023-02-13T04:02:22.788Z,3.01
2023-02-13T04:05:14.794Z,2.94
2023-02-13T04:07:41.252Z,2.79
2023-02-13T04:10:12.609Z,2.90
2023-02-13T04:12:48.066Z,2.87
2023-02-13T04:15:31.238Z,2.82
2023-02-13T04:18:10.887Z,2.65
2023-02-13T04:20:38.233Z,2.71
2023-02-13T04:23:07.087Z,2.64
2023-02-13T04:25:34.720Z,2.59
2023-02-13T04:28:01.213Z,2.58
2023-02-13T04:30:27.632Z,2.55
2023-02-13T04:32:53.989Z,2.58
2023-02-13T04:35:20.867Z,2.58
2023-02-13T04:37:47.247Z,2.43
2023-02-13T04:40:13.895Z,2.48
2023-02-13T04:42:40.279Z,2.36
2023-02-13T04:45:06.945Z,2.35
2023-02-13T04:47:33.375Z,2.34
2023-02-13T04:49:59.755Z,2.37
2023-02-13T04:52:26.176Z,2.35
2023-02-13T04:54:52.680Z,2.33
2023-02-13T04:57:19.058Z,2.23
2023-02-13T04:59:45.412Z,2.21
2023-02-13T05:02:11.762Z,2.19
2023-02-13T05:04:38.192Z,2.20
2023-02-13T05:07:04.639Z,2.14
2023-02-13T05:09:31.082Z,2.15
2023-02-13T05:11:57.567Z,2.04
2023-02-13T05:14:23.913Z,2.11
2023-02-13T05:16:50.298Z,2.15
2023-02-13T05:19:17.080Z,2.02
2023-02-13T05:22:02.103Z,2.01
2023-02-13T05:24:28.464Z,2.10
2023-02-13T05:26:54.884Z,2.10
2023-02-13T05:29:22.898Z,2.03
2023-02-13T05:31:54.564Z,1.98
2023-02-13T05:34:23.429Z,2.04
2023-02-13T05:36:50.411Z,2.06
2023-02-13T05:39:17.249Z,1.97
2023-02-13T05:41:44.773Z,2.02
2023-02-13T05:44:11.990Z,1.76
2023-02-13T05:46:40.070Z,1.93
2023-02-13T05:49:07.645Z,1.94
2023-02-13T05:51:34.088Z,1.85
2023-02-13T05:54:00.538Z,1.86
2023-02-13T05:56:27.036Z,1.79
2023-02-13T05:58:55.196Z,1.85
2023-02-13T06:01:22.684Z,1.79
2023-02-13T06:03:49.554Z,1.56
2023-02-13T06:06:16.587Z,1.70
2023-02-13T06:08:43.232Z,1.66
2023-02-13T06:11:11.449Z,1.54
2023-02-13T06:13:40.618Z,1.43
2023-02-13T06:16:08.562Z,1.42
2023-02-13T06:18:35.341Z,1.46
2023-02-13T06:21:02.603Z,1.38
2023-02-13T06:23:29.879Z,1.58
2023-02-13T06:25:56.254Z,1.31
2023-02-13T06:28:22.740Z,1.33
2023-02-13T06:30:49.203Z,1.31
2023-02-13T06:33:15.691Z,1.37
2023-02-13T06:35:42.038Z,1.27
2023-02-13T06:38:08.404Z,1.09
2023-02-13T06:40:34.747Z,1.22
2023-02-13T06:43:01.151Z,1.08
2023-02-13T06:45:27.554Z,1.19
2023-02-13T06:47:53.916Z,1.19
2023-02-13T06:50:20.442Z,1.07
2023-02-13T06:52:51.577Z,1.18
2023-02-13T06:55:18.654Z,1.30
2023-02-13T06:57:45.519Z,1.24
2023-02-13T07:00:13.917Z,1.19
2023-02-13T07:02:41.527Z,1.29
2023-02-13T07:05:09.256Z,1.40
2023-02-13T07:07:36.954Z,1.51
2023-02-13T07:10:05.759Z,1.43
2023-02-13T07:12:36.618Z,1.63
2023-02-13T07:15:06.670Z,1.49
2023-02-13T07:17:33.967Z,1.45
2023-02-13T07:20:00.394Z,1.38
2023-02-13T07:22:26.793Z,1.41
2023-02-13T07:24:53.218Z,1.45
2023-02-13T07:27:19.591Z,1.56
2023-02-13T07:29:45.959Z,1.63
2023-02-13T07:32:12.351Z,1.59
2023-02-13T07:34:42.639Z,1.54
2023-02-13T07:37:12.932Z,1.74
2023-02-13T07:39:39.326Z,1.66
2023-02-13T07:42:06.322Z,1.85
2023-02-13T07:44:32.846Z,1.82
2023-02-13T07:47:00.998Z,1.93
2023-02-13T07:49:27.443Z,1.97
2023-02-13T07:51:56.556Z,1.96
2023-02-13T07:54:22.996Z,2.13
2023-02-13T07:56:49.406Z,2.18
2023-02-13T07:59:16.044Z,2.38
2023-02-13T08:01:42.452Z,2.43
2023-02-13T08:04:08.927Z,2.55
2023-02-13T08:06:35.352Z,2.67
2023-02-13T08:09:20.108Z,2.72
2023-02-13T08:11:55.413Z,2.87
2023-02-13T08:14:23.444Z,2.86
2023-02-13T08:16:50.293Z,3.09
2023-02-13T08:19:16.842Z,3.25
2023-02-13T08:21:43.738Z,3.41
2023-02-13T08:24:10.732Z,3.56
2023-02-13T08:26:37.199Z,3.73
2023-02-13T08:29:05.049Z,3.64
2023-02-13T08:31:31.600Z,3.83
2023-02-13T08:33:58.417Z,3.94
2023-02-13T08:36:25.150Z,4.04
2023-02-13T08:38:51.653Z,4.13
2023-02-13T08:41:19.054Z,4.13
2023-02-13T08:43:45.822Z,4.42
2023-02-13T08:46:12.202Z,4.52
2023-02-13T08:48:38.586Z,4.65
2023-02-13T08:51:09.201Z,4.81
2023-02-13T08:53:36.501Z,4.84
2023-02-13T08:56:03.469Z,5.23
2023-02-13T08:58:30.022Z,5.11
2023-02-13T09:00:56.472Z,5.40
2023-02-13T09:03:23.176Z,5.42
2023-02-13T09:05:49.566Z,5.68
2023-02-13T09:08:17.875Z,5.94
2023-02-13T09:10:44.974Z,6.46
2023-02-13T09:13:11.588Z,6.46
2023-02-13T09:15:40.440Z,6.20
2023-02-13T09:18:07.776Z,6.18
2023-02-13T09:20:36.019Z,6.02
2023-02-13T09:23:02.595Z,5.88
2023-02-13T09:25:29.006Z,5.94
2023-02-13T09:27:55.392Z,5.86
2023-02-13T09:30:25.026Z,5.93
2023-02-13T09:32:53.050Z,5.82
2023-02-13T09:35:20.381Z,5.87
2023-02-13T09:37:47.243Z,5.75
2023-02-13T09:40:20.487Z,5.79
2023-02-13T09:42:48.981Z,5.83
2023-02-13T09:45:19.631Z,5.90
2023-02-13T09:47:47.607Z,5.83
2023-02-13T09:50:27.895Z,5.75
2023-02-13T09:52:56.164Z,5.78
2023-02-13T09:55:29.522Z,5.70
2023-02-13T09:58:15.162Z,5.67
2023-02-13T10:00:45.474Z,5.62
2023-02-13T10:03:16.556Z,5.77
2023-02-13T10:05:57.738Z,5.80
2023-02-13T10:08:55.448Z,5.87
2023-02-13T10:11:36.970Z,5.95
2023-02-13T10:14:19.409Z,5.99
2023-02-13T10:16:53.083Z,6.14
2023-02-13T10:19:44.364Z,6.10
2023-02-13T10:22:17.694Z,6.19
2023-02-13T10:24:48.481Z,6.25
2023-02-13T10:27:21.742Z,6.35
2023-02-13T10:30:12.388Z,6.32
2023-02-13T10:32:43.806Z,6.44
2023-02-13T10:35:28.077Z,6.54
2023-02-13T10:37:57.491Z,6.70
2023-02-13T10:40:42.452Z,6.69
2023-02-13T10:43:10.290Z,6.80
2023-02-13T10:45:48.530Z,6.88
2023-02-13T10:48:21.386Z,6.88
2023-02-13T10:50:58.043Z,6.92
2023-02-13T10:53:50.026Z,7.04
2023-02-13T10:56:25.451Z,7.09
2023-02-13T10:59:10.603Z,7.19
2023-02-13T11:01:50.064Z,7.37
2023-02-13T11:04:18.967Z,7.53
2023-02-13T11:06:57.551Z,7.75
2023-02-13T11:09:25.095Z,7.89
2023-02-13T11:11:52.028Z,8.12
2023-02-13T11:14:24.788Z,8.22
2023-02-13T11:17:02.747Z,8.31
2023-02-13T11:19:47.618Z,8.14
2023-02-13T11:22:26.654Z,8.18
2023-02-13T11:24:56.534Z,8.25
2023-02-13T11:27:28.156Z,8.24
2023-02-13T11:30:23.714Z,8.19
2023-02-13T11:33:16.248Z,8.30
2023-02-13T11:35:44.002Z,8.27
2023-02-13T11:38:10.291Z,8.37
2023-02-13T11:40:37.771Z,8.31
2023-02-13T11:43:06.830Z,8.36
2023-02-13T11:45:33.770Z,8.44
2023-02-13T11:48:00.274Z,8.48
2023-02-13T11:50:26.592Z,8.63
2023-02-13T11:53:01.501Z,8.65
2023-02-13T11:55:39.692Z,8.75
2023-02-13T11:58:12.278Z,8.81
2023-02-13T12:00:41.410Z,8.77
2023-02-13T12:03:27.618Z,8.90
2023-02-13T12:06:00.423Z,8.84
2023-02-13T12:08:27.508Z,8.85
2023-02-13T12:10:54.907Z,8.88
2023-02-13T12:13:29.762Z,8.86
2023-02-13T12:16:02.880Z,8.84
2023-02-13T12:18:36.887Z,8.86
2023-02-13T12:21:42.028Z,8.86
2023-02-13T12:24:45.030Z,8.73
2023-02-13T12:27:28.091Z,8.78
2023-02-13T12:30:10.885Z,8.70
2023-02-13T12:33:04.212Z,8.73
2023-02-13T12:36:04.532Z,8.68
2023-02-13T12:38:47.069Z,8.75
2023-02-13T12:41:34.726Z,8.87
2023-02-13T12:44:16.692Z,9.01
2023-02-13T12:47:09.955Z,9.20
2023-02-13T12:49:53.688Z,9.10
2023-02-13T12:52:51.245Z,9.27
2023-02-13T12:55:43.346Z,9.10
2023-02-13T12:58:28.671Z,8.91
2023-02-13T13:01:25.972Z,8.90
2023-02-13T13:04:29.847Z,8.77
2023-02-13T13:07:02.399Z,8.76
2023-02-13T13:09:28.709Z,8.77
2023-02-13T13:12:51.420Z,8.69
2023-02-13T13:15:29.432Z,8.76
2023-02-13T13:18:31.667Z,8.82
2023-02-13T13:21:16.507Z,8.75
2023-02-13T13:24:11.856Z,8.62
2023-02-13T13:26:44.911Z,8.66
2023-02-13T13:29:21.334Z,8.56
2023-02-13T13:32:08.554Z,8.56
2023-02-13T13:34:39.089Z,8.60
2023-02-13T13:37:11.707Z,8.61
2023-02-13T13:39:40.926Z,8.68
2023-02-13T13:42:24.887Z,8.65
2023-02-13T13:45:38.625Z,8.71
2023-02-13T13:48:19.509Z,8.60
2023-02-13T13:50:47.011Z,8.68
2023-02-13T13:53:19.144Z,8.63
2023-02-13T13:55:48.503Z,8.65
2023-02-13T13:58:25.044Z,8.58
2023-02-13T14:01:16.376Z,8.66
2023-02-13T14:03:54.097Z,8.62
2023-02-13T14:06:44.950Z,8.60
2023-02-13T14:09:26.289Z,8.69
2023-02-13T14:11:53.897Z,8.66
2023-02-13T14:14:44.576Z,8.69
2023-02-13T14:17:14.543Z,8.66
2023-02-13T14:19:46.185Z,8.54
2023-02-13T14:22:18.574Z,8.72
2023-02-13T14:24:55.644Z,8.70
2023-02-13T14:27:24.886Z,8.65
2023-02-13T14:29:51.368Z,8.59
2023-02-13T14:32:26.996Z,8.64
2023-02-13T14:34:58.044Z,8.54
2023-02-13T14:37:47.131Z,8.57
2023-02-13T14:40:17.389Z,8.48
2023-02-13T14:42:51.727Z,8.54
2023-02-13T14:45:27.261Z,8.53
2023-02-13T14:47:56.460Z,8.47
2023-02-13T14:50:30.681Z,8.46
2023-02-13T14:53:00.558Z,8.38
2023-02-13T14:55:36.461Z,8.31
2023-02-13T14:58:08.949Z,8.34
2023-02-13T15:00:44.370Z,8.37
2023-02-13T15:03:19.965Z,8.26
2023-02-13T15:05:51.645Z,8.26
2023-02-13T15:08:22.941Z,8.25
2023-02-13T15:10:52.242Z,8.18
2023-02-13T15:13:22.546Z,8.20
2023-02-13T15:15:59.184Z,8.16
2023-02-13T15:18:34.392Z,8.07
2023-02-13T15:21:01.753Z,8.26
2023-02-13T15:23:31.309Z,8.26
2023-02-13T15:26:08.007Z,8.25
2023-02-13T15:28:36.050Z,8.16
2023-02-13T15:31:21.119Z,8.11
2023-02-13T15:33:50.538Z,8.01
2023-02-13T15:36:20.503Z,7.92
2023-02-13T15:38:47.189Z,7.98
2023-02-13T15:41:21.894Z,7.90
2023-02-13T15:43:55.981Z,7.78
2023-02-13T15:46:30.937Z,7.70
2023-02-13T15:49:00.755Z,7.58
2023-02-13T15:51:30.515Z,7.37
2023-02-13T15:54:05.757Z,7.40
2023-02-13T15:56:33.295Z,7.31
2023-02-13T15:59:01.165Z,7.12
2023-02-13T16:01:28.600Z,7.16
2023-02-13T16:04:06.420Z,7.08
2023-02-13T16:06:34.009Z,7.08
2023-02-13T16:09:01.913Z,7.01
2023-02-13T16:11:32.243Z,6.95
2023-02-13T16:14:04.643Z,6.92
2023-02-13T16:16:36.400Z,6.70
2023-02-13T16:19:02.863Z,6.77
2023-02-13T16:21:31.363Z,6.76
2023-02-13T16:24:06.426Z,6.74
2023-02-13T16:26:35.998Z,6.63
2023-02-13T16:29:02.470Z,6.46
2023-02-13T16:31:29.341Z,6.40
2023-02-13T16:33:55.784Z,6.24
2023-02-13T16:36:29.918Z,6.15
2023-02-13T16:38:56.471Z,5.90
2023-02-13T16:41:22.791Z,5.84
2023-02-13T16:43:53.083Z,5.85
2023-02-13T16:46:39.566Z,5.65
2023-02-13T16:49:16.102Z,5.38
2023-02-13T16:51:51.434Z,5.33
2023-02-13T16:54:33.935Z,5.27
2023-02-13T16:57:13.720Z,5.10
2023-02-13T16:59:49.423Z,5.05
2023-02-13T17:02:32.843Z,4.94
2023-02-13T17:05:08.318Z,4.86
2023-02-13T17:07:50.831Z,4.82
2023-02-13T17:10:34.148Z,4.74
2023-02-13T17:13:03.682Z,4.62
2023-02-13T17:15:31.840Z,4.53
2023-02-13T17:17:58.799Z,4.47
2023-02-13T17:20:33.528Z,4.37
2023-02-13T17:23:05.849Z,4.18
2023-02-13T17:25:37.572Z,4.25
2023-02-13T17:28:13.740Z,4.21
2023-02-13T17:30:40.405Z,4.14
2023-02-13T17:33:12.088Z,4.02
2023-02-13T17:35:38.535Z,3.92
2023-02-13T17:38:06.252Z,3.85
2023-02-13T17:40:32.630Z,4.10
2023-02-13T17:42:59.675Z,3.95
2023-02-13T17:45:29.055Z,3.99
2023-02-13T17:47:57.653Z,3.86
2023-02-13T17:50:25.650Z,3.73
2023-02-13T17:52:52.458Z,3.65
2023-02-13T17:55:28.311Z,3.69
2023-02-13T17:57:59.031Z,3.81
2023-02-13T18:00:28.016Z,3.75
2023-02-13T18:02:55.330Z,3.56
2023-02-13T18:05:22.320Z,3.57
2023-02-13T18:07:48.930Z,3.48
2023-02-13T18:10:23.782Z,3.64
2023-02-13T18:12:51.308Z,3.53
2023-02-13T18:15:17.987Z,3.54
2023-02-13T18:17:44.747Z,3.55
2023-02-13T18:20:15.290Z,3.46
2023-02-13T18:22:41.673Z,3.49
2023-02-13T18:25:08.789Z,3.47
2023-02-13T18:27:35.304Z,3.40
2023-02-13T18:30:01.761Z,3.44
2023-02-13T18:32:28.235Z,3.36
2023-02-13T18:34:54.614Z,3.45
2023-02-13T18:37:21.236Z,3.48
2023-02-13T18:39:47.576Z,3.33
2023-02-13T18:42:14.002Z,3.48
2023-02-13T18:44:41.379Z,3.42
2023-02-13T18:47:07.883Z,3.53
2023-02-13T18:49:34.255Z,3.37
2023-02-13T18:52:01.584Z,3.33
2023-02-13T18:54:28.270Z,3.36
2023-02-13T18:56:54.690Z,3.49
2023-02-13T18:59:22.816Z,3.49
2023-02-13T19:01:49.760Z,3.36
2023-02-13T19:04:16.358Z,3.42
2023-02-13T19:06:43.720Z,3.49
2023-02-13T19:09:10.935Z,3.41
2023-02-13T19:11:38.748Z,3.68
2023-02-13T19:14:05.612Z,3.64
2023-02-13T19:16:34.332Z,3.83
2023-02-13T19:19:03.439Z,3.73
2023-02-13T19:21:33.148Z,3.74
2023-02-13T19:23:59.545Z,3.67
2023-02-13T19:26:27.022Z,3.81
2023-02-13T19:28:53.733Z,3.82
2023-02-13T19:31:23.090Z,3.77
2023-02-13T19:33:50.750Z,3.76
2023-02-13T19:36:20.023Z,3.69
2023-02-13T19:38:46.711Z,3.64
2023-02-13T19:41:16.178Z,3.65
2023-02-13T19:43:42.801Z,3.59
2023-02-13T19:46:12.880Z,3.47
2023-02-13T19:48:42.847Z,3.77
2023-02-13T19:51:11.297Z,3.79
2023-02-13T19:53:38.305Z,3.60
2023-02-13T19:56:06.762Z,3.79
2023-02-13T19:58:33.998Z,3.63
2023-02-13T20:01:15.857Z,3.70
2023-02-13T20:03:43.044Z,3.67
2023-02-13T20:06:18.728Z,3.68
2023-02-13T20:08:45.818Z,3.86
2023-02-13T20:11:15.440Z,3.73
2023-02-13T20:13:42.145Z,3.53
2023-02-13T20:16:11.655Z,3.60
2023-02-13T20:18:39.351Z,3.51
2023-02-13T20:21:10.455Z,3.47
2023-02-13T20:23:37.608Z,3.47
2023-02-13T20:26:09.131Z,3.34
2023-02-13T20:28:35.595Z,3.19
2023-02-13T20:31:04.074Z,3.04
2023-02-13T20:33:30.750Z,3.09
2023-02-13T20:35:57.110Z,3.04
2023-02-13T20:38:23.479Z,2.98
2023-02-13T20:40:49.820Z,3.12
2023-02-13T20:43:16.242Z,3.12
2023-02-13T20:45:42.698Z,3.06
2023-02-13T20:48:09.111Z,3.03
2023-02-13T20:50:35.529Z,3.13
2023-02-13T20:53:01.894Z,3.00
2023-02-13T20:55:28.272Z,2.98
2023-02-13T20:57:54.694Z,3.08
2023-02-13T21:00:21.289Z,3.01
2023-02-13T21:02:47.710Z,3.00
2023-02-13T21:05:14.123Z,2.80
2023-02-13T21:07:40.622Z,2.79
2023-02-13T21:10:07.439Z,2.84
2023-02-13T21:12:34.947Z,2.77
2023-02-13T21:15:01.344Z,2.79
2023-02-13T21:17:27.706Z,2.73
2023-02-13T21:19:54.077Z,2.82
2023-02-13T21:22:20.437Z,2.67
2023-02-13T21:24:50.024Z,2.63
2023-02-13T21:27:16.387Z,2.57
2023-02-13T21:29:42.769Z,2.62
2023-02-13T21:32:09.248Z,2.54
2023-02-13T21:34:36.119Z,2.48
2023-02-13T21:37:02.575Z,2.65
2023-02-13T21:39:29.022Z,2.67
2023-02-13T21:41:55.437Z,2.53
2023-02-13T21:44:21.901Z,2.64
2023-02-13T21:46:48.651Z,2.59
2023-02-13T21:49:17.577Z,2.63
2023-02-13T21:51:45.302Z,2.65
2023-02-13T21:54:11.812Z,2.77
2023-02-13T21:56:40.266Z,2.69
2023-02-13T21:59:07.251Z,2.84
2023-02-13T22:01:36.514Z,2.83
2023-02-13T22:04:06.376Z,2.73
2023-02-13T22:06:35.159Z,2.85
2023-02-13T22:09:13.618Z,2.80
2023-02-13T22:11:41.161Z,2.70
2023-02-13T22:14:11.627Z,2.59
2023-02-13T22:16:39.044Z,2.67
2023-02-13T22:19:06.992Z,2.62
2023-02-13T22:21:35.060Z,2.78
2023-02-13T22:24:02.135Z,2.61
2023-02-13T22:26:31.000Z,2.58
2023-02-13T22:29:05.718Z,2.71
2023-02-13T22:31:32.243Z,2.67
2023-02-13T22:34:03.984Z,2.67
2023-02-13T22:36:32.941Z,2.66
2023-02-13T22:38:59.333Z,2.51
2023-02-13T22:41:27.093Z,2.49
2023-02-13T22:43:53.967Z,2.57
2023-02-13T22:46:25.979Z,2.51
2023-02-13T22:48:53.134Z,2.41
2023-02-13T22:51:24.889Z,2.60
2023-02-13T22:53:58.329Z,2.53
2023-02-13T22:56:26.465Z,2.57
2023-02-13T22:58:52.828Z,2.45
2023-02-13T23:01:21.134Z,2.46
2023-02-13T23:03:48.851Z,2.29
2023-02-13T23:06:15.847Z,2.47
2023-02-13T23:08:42.731Z,2.40
2023-02-13T23:11:34.854Z,2.43
2023-02-13T23:14:01.389Z,2.45
2023-02-13T23:16:28.079Z,2.47
2023-02-13T23:18:56.379Z,2.44
2023-02-13T23:21:23.953Z,2.28
2023-02-13T23:23:50.372Z,2.29
2023-02-13T23:26:17.195Z,2.50
2023-02-13T23:28:43.555Z,2.40
2023-02-13T23:31:10.053Z,2.21
2023-02-13T23:33:36.535Z,2.27
2023-02-13T23:36:03.055Z,2.39
2023-02-13T23:38:29.555Z,2.36
2023-02-13T23:40:56.007Z,2.15
2023-02-13T23:43:22.398Z,2.27
2023-02-13T23:45:49.724Z,2.32
2023-02-13T23:48:16.086Z,2.22
2023-02-13T23:50:42.470Z,2.15
2023-02-13T23:53:08.831Z,2.38
2023-02-13T23:55:35.196Z,2.24
2023-02-13T23:58:01.551Z,2.36
